createdAt,value
2019-04-10T00:00:47.783Z,3.73
2019-04-10T00:01:27.822Z,4.30
2019-04-10T00:02:04.946Z,3.67
2019-04-10T00:02:41.762Z,3.53
2019-04-10T00:03:27.826Z,4.30
2019-04-10T00:03:56.681Z,4.13
2019-04-10T00:04:32.771Z,4.40
2019-04-10T00:05:09.704Z,5.00
2019-04-10T00:05:45.799Z,3.93
2019-04-10T00:06:21.926Z,3.97
2019-04-10T00:07:10.531Z,3.80
2019-04-10T00:07:35.822Z,4.00
2019-04-10T00:08:12.324Z,4.50
2019-04-10T00:08:48.527Z,4.13
2019-04-10T00:09:25.272Z,5.20
2019-04-10T00:10:01.512Z,3.80
2019-04-10T00:10:38.330Z,4.30
2019-04-10T00:11:14.506Z,3.97
2019-04-10T00:11:51.384Z,4.40
2019-04-10T00:12:27.587Z,3.93
2019-04-10T00:13:04.480Z,4.30
2019-04-10T00:13:40.710Z,4.07
2019-04-10T00:14:16.930Z,4.30
2019-04-10T00:14:53.014Z,4.10
2019-04-10T00:15:29.135Z,3.70
2019-04-10T00:16:05.623Z,3.80
2019-04-10T00:16:42.496Z,3.93
2019-04-10T00:17:18.675Z,3.97
2019-04-10T00:17:55.671Z,4.10
2019-04-10T00:18:31.931Z,4.03
2019-04-10T00:19:08.732Z,3.10
2019-04-10T00:19:45.582Z,4.80
2019-04-10T00:20:22.536Z,3.70
2019-04-10T00:20:58.697Z,3.27
2019-04-10T00:21:35.529Z,4.13
2019-04-10T00:22:11.794Z,4.10
2019-04-10T00:22:48.654Z,4.27
2019-04-10T00:23:24.853Z,4.53
2019-04-10T00:24:01.883Z,4.13
2019-04-10T00:24:37.957Z,4.17
2019-04-10T00:25:14.918Z,3.63
2019-04-10T00:25:51.018Z,4.53
2019-04-10T00:26:27.880Z,4.07
2019-04-10T00:27:04.128Z,3.83
2019-04-10T00:27:40.954Z,3.97
2019-04-10T00:28:17.196Z,3.63
2019-04-10T00:28:53.878Z,4.23
2019-04-10T00:29:30.019Z,4.80
2019-04-10T00:30:06.946Z,3.77
2019-04-10T00:30:43.127Z,4.90
2019-04-10T00:31:19.956Z,4.10
2019-04-10T00:31:56.447Z,4.17
2019-04-10T00:32:32.534Z,3.87
2019-04-10T00:33:08.523Z,5.63
2019-04-10T00:33:45.095Z,4.60
2019-04-10T00:34:21.278Z,4.30
2019-04-10T00:34:58.162Z,4.83
2019-04-10T00:35:35.165Z,5.20
2019-04-10T00:36:12.128Z,4.20
2019-04-10T00:36:49.063Z,5.30
2019-04-10T00:37:28.457Z,5.87
2019-04-10T00:38:02.977Z,5.67
2019-04-10T00:38:39.914Z,6.23
2019-04-10T00:39:16.046Z,5.63
2019-04-10T00:39:52.998Z,7.10
2019-04-10T00:40:29.157Z,7.17
2019-04-10T00:41:06.021Z,6.27
2019-04-10T00:41:42.086Z,6.67
2019-04-10T00:42:18.978Z,6.90
2019-04-10T00:42:57.037Z,7.67
2019-04-10T00:43:32.940Z,6.00
2019-04-10T00:44:09.185Z,5.20
2019-04-10T00:44:45.936Z,4.83
2019-04-10T00:45:22.375Z,4.80
2019-04-10T00:45:58.571Z,4.43
2019-04-10T00:46:34.810Z,4.33
2019-04-10T00:47:10.934Z,4.77
2019-04-10T00:47:47.747Z,4.70
2019-04-10T00:48:24.025Z,4.83
2019-04-10T00:49:00.627Z,4.63
2019-04-10T00:49:37.723Z,4.40
2019-04-10T00:50:14.622Z,4.60
2019-04-10T00:50:50.913Z,4.43
2019-04-10T00:51:27.591Z,4.80
2019-04-10T00:52:03.916Z,5.00
2019-04-10T00:52:40.677Z,4.00
2019-04-10T00:53:17.010Z,5.70
2019-04-10T00:53:53.881Z,4.57
2019-04-10T00:54:30.936Z,4.50
2019-04-10T00:55:07.780Z,4.37
2019-04-10T00:55:44.095Z,4.77
2019-04-10T00:56:20.774Z,4.60
2019-04-10T00:56:56.986Z,4.50
2019-04-10T00:57:33.835Z,5.20
2019-04-10T00:58:10.071Z,4.20
2019-04-10T00:58:46.070Z,5.03
2019-04-10T00:59:22.069Z,4.17
2019-04-10T00:59:58.860Z,5.03
2019-04-10T01:00:36.796Z,4.93
2019-04-10T01:01:13.797Z,5.30
2019-04-10T01:01:50.026Z,4.60
2019-04-10T01:02:26.888Z,3.70
2019-04-10T01:03:03.118Z,3.93
2019-04-10T01:03:47.285Z,5.50
2019-04-10T01:04:23.024Z,4.20
2019-04-10T01:04:59.041Z,4.37
2019-04-10T01:05:35.397Z,5.43
2019-04-10T01:06:11.609Z,5.40
2019-04-10T01:06:48.400Z,4.43
2019-04-10T01:07:35.762Z,4.00
2019-04-10T01:08:02.410Z,4.63
2019-04-10T01:08:38.418Z,4.80
2019-04-10T01:09:15.389Z,4.63
2019-04-10T01:09:51.673Z,5.20
2019-04-10T01:10:28.483Z,4.67
2019-04-10T01:11:04.677Z,4.13
2019-04-10T01:11:41.423Z,5.03
2019-04-10T01:12:17.510Z,4.23
2019-04-10T01:12:54.442Z,5.00
2019-04-10T01:13:30.485Z,4.37
2019-04-10T01:14:07.489Z,4.50
2019-04-10T01:14:43.554Z,3.90
2019-04-10T01:15:20.440Z,4.40
2019-04-10T01:15:56.473Z,4.90
2019-04-10T01:16:33.496Z,4.50
2019-04-10T01:17:09.594Z,4.93
2019-04-10T01:17:46.600Z,4.30
2019-04-10T01:18:23.384Z,4.60
2019-04-10T01:18:59.586Z,4.67
2019-04-10T01:19:36.341Z,5.17
2019-04-10T01:20:13.334Z,4.77
2019-04-10T01:20:50.158Z,4.60
2019-04-10T01:21:26.564Z,4.33
2019-04-10T01:22:03.122Z,4.50
2019-04-10T01:22:39.657Z,4.93
2019-04-10T01:23:16.076Z,5.13
2019-04-10T01:23:53.250Z,3.93
2019-04-10T01:24:29.989Z,5.17
2019-04-10T01:25:06.244Z,5.07
2019-04-10T01:25:42.936Z,5.17
2019-04-10T01:26:19.186Z,5.00
2019-04-10T01:26:55.928Z,4.60
2019-04-10T01:27:32.172Z,4.80
2019-04-10T01:28:08.763Z,3.77
2019-04-10T01:28:45.183Z,4.67
2019-04-10T01:29:21.707Z,4.33
2019-04-10T01:29:58.048Z,5.27
2019-04-10T01:30:34.813Z,4.30
2019-04-10T01:31:11.021Z,4.70
2019-04-10T01:31:47.682Z,4.00
2019-04-10T01:32:23.847Z,5.10
2019-04-10T01:33:00.671Z,5.10
2019-04-10T01:33:36.912Z,4.57
2019-04-10T01:34:13.577Z,4.63
2019-04-10T01:34:49.746Z,5.63
2019-04-10T01:35:26.619Z,4.73
2019-04-10T01:36:02.861Z,4.67
2019-04-10T01:36:39.480Z,4.83
2019-04-10T01:37:16.572Z,4.90
2019-04-10T01:37:57.699Z,4.73
2019-04-10T01:38:30.660Z,4.20
2019-04-10T01:39:10.457Z,4.90
2019-04-10T01:39:46.568Z,5.20
2019-04-10T01:40:23.366Z,5.10
2019-04-10T01:40:59.537Z,4.73
2019-04-10T01:41:36.289Z,6.23
2019-04-10T01:42:12.485Z,5.27
2019-04-10T01:43:02.400Z,4.97
2019-04-10T01:43:26.643Z,5.57
2019-04-10T01:44:03.477Z,5.47
2019-04-10T01:44:40.589Z,5.33
2019-04-10T01:45:17.492Z,5.00
2019-04-10T01:45:54.008Z,5.03
2019-04-10T01:46:33.258Z,5.90
2019-04-10T01:47:07.896Z,5.07
2019-04-10T01:47:43.997Z,5.00
2019-04-10T01:48:19.991Z,4.70
2019-04-10T01:48:56.035Z,5.50
2019-04-10T01:49:32.254Z,5.83
2019-04-10T01:50:08.470Z,5.00
2019-04-10T01:50:44.637Z,4.83
2019-04-10T01:51:21.385Z,4.87
2019-04-10T01:51:57.795Z,4.80
2019-04-10T01:52:33.932Z,5.30
2019-04-10T01:53:09.955Z,5.40
2019-04-10T01:53:46.180Z,5.57
2019-04-10T01:54:22.743Z,5.00
2019-04-10T01:54:59.754Z,5.10
2019-04-10T01:55:35.963Z,5.50
2019-04-10T01:56:23.994Z,5.07
2019-04-10T01:56:50.152Z,6.10
2019-04-10T01:57:26.332Z,4.90
2019-04-10T01:58:03.619Z,5.20
2019-04-10T01:58:41.440Z,5.20
2019-04-10T01:59:19.135Z,5.40
2019-04-10T01:59:56.233Z,5.50
2019-04-10T02:00:32.845Z,5.33
2019-04-10T02:01:16.559Z,5.30
2019-04-10T02:02:00.897Z,5.50
2019-04-10T02:02:43.118Z,5.80
2019-04-10T02:03:20.164Z,5.50
2019-04-10T02:03:56.354Z,5.00
2019-04-10T02:04:33.108Z,6.40
2019-04-10T02:05:09.269Z,5.70
2019-04-10T02:05:45.464Z,4.90
2019-04-10T02:06:21.628Z,5.60
2019-04-10T02:06:58.009Z,5.60
2019-04-10T02:07:34.185Z,6.10
2019-04-10T02:08:13.523Z,5.23
2019-04-10T02:08:48.256Z,5.27
2019-04-10T02:09:25.541Z,6.13
2019-04-10T02:10:01.869Z,6.43
2019-04-10T02:10:38.465Z,6.27
2019-04-10T02:11:15.419Z,6.03
2019-04-10T02:11:52.360Z,5.50
2019-04-10T02:12:28.618Z,7.00
2019-04-10T02:13:05.382Z,6.17
2019-04-10T02:13:41.638Z,5.63
2019-04-10T02:14:18.376Z,5.40
2019-04-10T02:14:54.522Z,6.40
2019-04-10T02:15:30.830Z,6.03
2019-04-10T02:16:08.212Z,6.07
2019-04-10T02:16:45.256Z,5.50
2019-04-10T02:17:22.253Z,6.43
2019-04-10T02:17:59.139Z,6.53
2019-04-10T02:18:35.820Z,6.47
2019-04-10T02:19:12.243Z,6.00
2019-04-10T02:19:48.460Z,6.00
2019-04-10T02:20:25.033Z,6.00
2019-04-10T02:21:01.258Z,6.10
2019-04-10T02:21:38.024Z,5.87
2019-04-10T02:22:14.201Z,6.47
2019-04-10T02:22:50.249Z,5.33
2019-04-10T02:23:26.434Z,5.17
2019-04-10T02:24:02.951Z,6.50
2019-04-10T02:24:39.076Z,5.93
2019-04-10T02:25:15.776Z,6.77
2019-04-10T02:25:52.804Z,5.43
2019-04-10T02:26:29.714Z,5.60
2019-04-10T02:27:05.881Z,5.50
2019-04-10T02:27:42.663Z,5.43
2019-04-10T02:28:18.836Z,6.53
2019-04-10T02:28:55.513Z,5.60
2019-04-10T02:29:31.786Z,6.00
2019-04-10T02:30:10.346Z,6.53
2019-04-10T02:30:47.871Z,6.30
2019-04-10T02:31:26.329Z,6.30
2019-04-10T02:32:04.023Z,7.17
2019-04-10T02:32:43.604Z,6.60
2019-04-10T02:33:18.435Z,5.80
2019-04-10T02:33:57.064Z,6.60
2019-04-10T02:34:32.713Z,7.53
2019-04-10T02:35:13.186Z,5.80
2019-04-10T02:35:47.862Z,6.83
2019-04-10T02:36:25.638Z,6.40
2019-04-10T02:37:02.667Z,7.30
2019-04-10T02:37:39.588Z,7.87
2019-04-10T02:38:33.855Z,6.87
2019-04-10T02:39:05.652Z,6.77
2019-04-10T02:39:37.906Z,7.90
2019-04-10T02:40:10.266Z,7.07
2019-04-10T02:40:47.689Z,7.40
2019-04-10T02:41:23.993Z,8.03
2019-04-10T02:42:00.573Z,7.67
2019-04-10T02:42:37.292Z,7.93
2019-04-10T02:43:16.101Z,9.67
2019-04-10T02:43:53.758Z,6.90
2019-04-10T02:44:30.616Z,7.53
2019-04-10T02:45:08.525Z,8.63
2019-04-10T02:45:44.850Z,7.57
2019-04-10T02:46:22.050Z,7.03
2019-04-10T02:46:59.711Z,7.00
2019-04-10T02:47:37.041Z,7.37
2019-04-10T02:48:13.011Z,6.90
2019-04-10T02:48:50.104Z,6.10
2019-04-10T02:49:27.851Z,6.43
2019-04-10T02:50:06.190Z,6.53
2019-04-10T02:50:42.993Z,6.57
2019-04-10T02:51:20.008Z,7.23
2019-04-10T02:51:57.001Z,6.27
2019-04-10T02:52:34.914Z,6.37
2019-04-10T02:53:11.075Z,6.60
2019-04-10T02:53:48.104Z,6.47
2019-04-10T02:54:25.084Z,6.70
2019-04-10T02:55:01.997Z,6.30
2019-04-10T02:55:38.840Z,6.80
2019-04-10T02:56:15.943Z,5.80
2019-04-10T02:56:52.967Z,6.27
2019-04-10T02:57:29.420Z,6.50
2019-04-10T02:58:06.000Z,6.63
2019-04-10T02:58:42.712Z,6.70
2019-04-10T02:59:18.817Z,6.33
2019-04-10T02:59:55.761Z,6.53
2019-04-10T03:00:33.693Z,5.93
2019-04-10T03:01:11.165Z,5.97
2019-04-10T03:01:49.603Z,6.40
2019-04-10T03:02:26.602Z,5.97
2019-04-10T03:03:03.556Z,6.40
2019-04-10T03:03:40.327Z,6.03
2019-04-10T03:04:16.990Z,5.30
2019-04-10T03:04:55.138Z,6.13
2019-04-10T03:05:32.640Z,6.40
2019-04-10T03:06:11.355Z,6.30
2019-04-10T03:06:47.367Z,5.70
2019-04-10T03:07:23.970Z,6.60
2019-04-10T03:08:01.098Z,6.47
2019-04-10T03:08:57.673Z,5.93
2019-04-10T03:09:32.538Z,6.00
2019-04-10T03:10:07.277Z,5.60
2019-04-10T03:10:40.521Z,6.87
2019-04-10T03:11:12.193Z,6.07
2019-04-10T03:11:47.528Z,6.20
2019-04-10T03:12:23.857Z,6.17
2019-04-10T03:13:00.655Z,6.20
2019-04-10T03:13:38.154Z,6.10
2019-04-10T03:14:14.889Z,6.10
2019-04-10T03:14:52.201Z,6.73
2019-04-10T03:15:29.742Z,5.77
2019-04-10T03:16:07.488Z,6.20
2019-04-10T03:16:43.828Z,6.70
2019-04-10T03:17:19.908Z,6.23
2019-04-10T03:17:56.599Z,6.57
2019-04-10T03:18:32.870Z,7.03
2019-04-10T03:19:09.488Z,6.10
2019-04-10T03:19:45.635Z,5.70
2019-04-10T03:20:22.451Z,7.07
2019-04-10T03:20:58.539Z,5.70
2019-04-10T03:21:35.414Z,5.60
2019-04-10T03:22:12.449Z,6.70
2019-04-10T03:22:49.274Z,6.77
2019-04-10T03:23:25.370Z,6.27
2019-04-10T03:24:02.125Z,5.33
2019-04-10T03:24:38.379Z,5.43
2019-04-10T03:25:14.948Z,5.83
2019-04-10T03:25:51.135Z,6.30
2019-04-10T03:26:27.886Z,6.17
2019-04-10T03:27:04.211Z,6.70
2019-04-10T03:27:40.702Z,6.43
2019-04-10T03:28:16.799Z,6.30
2019-04-10T03:28:53.519Z,5.77
2019-04-10T03:29:29.943Z,6.00
2019-04-10T03:30:07.593Z,6.57
2019-04-10T03:30:46.492Z,6.70
2019-04-10T03:31:24.714Z,6.57
2019-04-10T03:32:21.125Z,5.60
2019-04-10T03:33:12.394Z,6.70
2019-04-10T03:34:16.081Z,6.10
2019-04-10T03:34:54.829Z,5.47
2019-04-10T03:35:47.105Z,6.07
2019-04-10T03:36:24.367Z,5.80
2019-04-10T03:37:01.803Z,5.67
2019-04-10T03:37:40.293Z,6.53
2019-04-10T03:38:18.175Z,6.20
2019-04-10T03:39:00.221Z,6.30
2019-04-10T03:39:35.621Z,5.67
2019-04-10T03:40:11.502Z,6.43
2019-04-10T03:40:48.122Z,6.10
2019-04-10T03:41:24.813Z,6.70
2019-04-10T03:42:01.419Z,6.53
2019-04-10T03:42:39.114Z,5.70
2019-04-10T03:43:15.868Z,6.10
2019-04-10T03:43:52.445Z,5.77
2019-04-10T03:44:28.918Z,6.20
2019-04-10T03:45:05.589Z,6.60
2019-04-10T03:45:42.052Z,5.53
2019-04-10T03:46:19.493Z,6.20
2019-04-10T03:46:58.695Z,6.90
2019-04-10T03:47:35.546Z,5.97
2019-04-10T03:48:12.123Z,6.77
2019-04-10T03:48:49.433Z,6.13
2019-04-10T03:49:26.141Z,7.17
2019-04-10T03:50:02.817Z,5.70
2019-04-10T03:50:39.635Z,6.43
2019-04-10T03:51:16.566Z,6.10
2019-04-10T03:51:53.241Z,5.30
2019-04-10T03:52:29.816Z,5.73
2019-04-10T03:53:07.526Z,5.67
2019-04-10T03:53:44.537Z,5.37
2019-04-10T03:54:21.177Z,6.60
2019-04-10T03:54:58.611Z,5.87
2019-04-10T03:55:35.329Z,5.60
2019-04-10T03:56:12.035Z,6.83
2019-04-10T03:56:49.912Z,6.20
2019-04-10T03:57:27.117Z,6.83
2019-04-10T03:58:03.615Z,5.90
2019-04-10T03:58:40.212Z,5.67
2019-04-10T03:59:16.978Z,5.80
2019-04-10T03:59:53.844Z,6.40
2019-04-10T04:00:30.616Z,5.90
2019-04-10T04:01:07.125Z,6.20
2019-04-10T04:01:43.513Z,6.53
2019-04-10T04:02:20.030Z,6.50
2019-04-10T04:02:56.335Z,5.03
2019-04-10T04:03:32.972Z,6.10
2019-04-10T04:04:09.550Z,6.77
2019-04-10T04:04:46.109Z,6.40
2019-04-10T04:05:22.526Z,5.67
2019-04-10T04:06:00.098Z,6.47
2019-04-10T04:06:36.791Z,5.37
2019-04-10T04:07:13.447Z,5.37
2019-04-10T04:07:50.702Z,6.27
2019-04-10T04:08:27.791Z,5.43
2019-04-10T04:09:10.871Z,6.17
2019-04-10T04:09:44.182Z,4.83
2019-04-10T04:10:20.659Z,6.23
2019-04-10T04:10:57.322Z,5.07
2019-04-10T04:11:33.959Z,5.20
2019-04-10T04:12:10.574Z,4.90
2019-04-10T04:12:46.932Z,4.97
2019-04-10T04:13:23.691Z,5.67
2019-04-10T04:14:00.206Z,5.63
2019-04-10T04:14:36.722Z,5.17
2019-04-10T04:15:13.586Z,5.27
2019-04-10T04:15:50.584Z,5.63
2019-04-10T04:16:26.915Z,5.07
2019-04-10T04:17:04.017Z,6.03
2019-04-10T04:17:40.185Z,5.00
2019-04-10T04:18:17.198Z,5.87
2019-04-10T04:18:53.435Z,5.47
2019-04-10T04:19:30.971Z,5.90
2019-04-10T04:20:07.556Z,5.50
2019-04-10T04:20:43.709Z,5.27
2019-04-10T04:21:19.949Z,5.47
2019-04-10T04:21:56.373Z,5.73
2019-04-10T04:22:32.719Z,6.10
2019-04-10T04:23:09.580Z,5.40
2019-04-10T04:23:46.634Z,5.33
2019-04-10T04:24:26.332Z,5.33
2019-04-10T04:25:02.706Z,5.63
2019-04-10T04:25:38.784Z,5.73
2019-04-10T04:26:14.897Z,6.00
2019-04-10T04:26:50.955Z,5.10
2019-04-10T04:27:27.388Z,5.10
2019-04-10T04:28:04.620Z,5.40
2019-04-10T04:28:41.853Z,5.20
2019-04-10T04:29:18.495Z,5.60
2019-04-10T04:29:55.337Z,5.50
2019-04-10T04:30:32.084Z,5.20
2019-04-10T04:31:09.418Z,5.27
2019-04-10T04:31:45.777Z,4.60
2019-04-10T04:32:21.895Z,5.03
2019-04-10T04:32:58.070Z,4.27
2019-04-10T04:33:34.163Z,5.67
2019-04-10T04:34:10.281Z,5.73
2019-04-10T04:34:47.377Z,5.47
2019-04-10T04:35:23.571Z,4.87
2019-04-10T04:35:59.903Z,5.10
2019-04-10T04:36:37.124Z,5.27
2019-04-10T04:37:13.425Z,5.40
2019-04-10T04:37:50.598Z,4.47
2019-04-10T04:38:27.704Z,5.90
2019-04-10T04:39:18.097Z,4.50
2019-04-10T04:39:43.356Z,5.40
2019-04-10T04:40:19.720Z,5.17
2019-04-10T04:40:56.084Z,5.00
2019-04-10T04:41:32.191Z,4.90
2019-04-10T04:42:09.245Z,5.47
2019-04-10T04:42:45.541Z,4.83
2019-04-10T04:43:22.246Z,5.07
2019-04-10T04:43:59.326Z,5.00
2019-04-10T04:44:35.501Z,5.00
2019-04-10T04:45:12.684Z,5.17
2019-04-10T04:45:48.917Z,4.73
2019-04-10T04:46:26.021Z,4.93
2019-04-10T04:47:03.304Z,5.07
2019-04-10T04:47:40.000Z,4.40
2019-04-10T04:48:17.013Z,5.60
2019-04-10T04:48:52.986Z,5.13
2019-04-10T04:49:29.040Z,6.03
2019-04-10T04:50:05.587Z,5.07
2019-04-10T04:50:42.048Z,5.27
2019-04-10T04:51:21.953Z,4.93
2019-04-10T04:51:58.264Z,5.37
2019-04-10T04:52:34.957Z,4.83
2019-04-10T04:53:11.314Z,5.67
2019-04-10T04:53:48.313Z,5.70
2019-04-10T04:54:25.525Z,4.70
2019-04-10T04:55:02.051Z,4.53
2019-04-10T04:55:38.153Z,5.13
2019-04-10T04:56:14.440Z,5.47
2019-04-10T04:56:50.587Z,5.10
2019-04-10T04:57:26.869Z,4.97
2019-04-10T04:58:04.087Z,5.03
2019-04-10T04:58:40.920Z,4.40
2019-04-10T04:59:18.349Z,5.57
2019-04-10T04:59:54.850Z,4.87
2019-04-10T05:00:32.013Z,5.30
2019-04-10T05:01:08.487Z,5.13
2019-04-10T05:01:44.921Z,4.97
2019-04-10T05:02:21.941Z,5.80
2019-04-10T05:02:58.412Z,4.40
2019-04-10T05:03:35.416Z,4.93
2019-04-10T05:04:11.802Z,5.43
2019-04-10T05:04:49.289Z,4.53
2019-04-10T05:05:25.868Z,5.77
2019-04-10T05:06:02.347Z,4.83
2019-04-10T05:06:39.569Z,4.70
2019-04-10T05:07:16.879Z,5.23
2019-04-10T05:07:59.460Z,5.40
2019-04-10T05:08:32.373Z,4.43
2019-04-10T05:09:09.948Z,5.17
2019-04-10T05:09:46.360Z,6.27
2019-04-10T05:10:22.948Z,4.50
2019-04-10T05:11:00.122Z,5.17
2019-04-10T05:11:36.708Z,5.17
2019-04-10T05:12:13.449Z,5.00
2019-04-10T05:12:50.072Z,5.20
2019-04-10T05:13:26.689Z,4.97
2019-04-10T05:14:03.387Z,4.80
2019-04-10T05:14:40.020Z,5.13
2019-04-10T05:15:16.686Z,5.07
2019-04-10T05:15:53.387Z,4.37
2019-04-10T05:16:30.744Z,5.43
2019-04-10T05:17:08.048Z,4.33
2019-04-10T05:17:44.973Z,5.10
2019-04-10T05:18:21.592Z,5.53
2019-04-10T05:18:58.099Z,4.87
2019-04-10T05:19:34.627Z,4.97
2019-04-10T05:20:11.241Z,5.17
2019-04-10T05:20:50.456Z,4.60
2019-04-10T05:21:25.928Z,4.40
2019-04-10T05:22:02.411Z,5.67
2019-04-10T05:22:39.591Z,4.50
2019-04-10T05:23:16.186Z,4.07
2019-04-10T05:23:53.363Z,4.07
2019-04-10T05:24:30.095Z,4.80
2019-04-10T05:25:06.950Z,4.33
2019-04-10T05:25:43.611Z,4.37
2019-04-10T05:26:20.751Z,4.17
2019-04-10T05:26:57.418Z,4.90
2019-04-10T05:27:34.973Z,4.70
2019-04-10T05:28:11.720Z,4.83
2019-04-10T05:28:48.617Z,5.27
2019-04-10T05:29:25.149Z,4.60
2019-04-10T05:30:02.338Z,4.50
2019-04-10T05:30:38.927Z,5.77
2019-04-10T05:31:15.466Z,5.13
2019-04-10T05:31:52.873Z,4.90
2019-04-10T05:32:30.764Z,4.27
2019-04-10T05:33:08.207Z,4.87
2019-04-10T05:33:44.962Z,4.30
2019-04-10T05:34:22.001Z,4.30
2019-04-10T05:34:58.773Z,4.50
2019-04-10T05:35:36.305Z,4.60
2019-04-10T05:36:17.742Z,4.80
2019-04-10T05:36:57.210Z,4.63
2019-04-10T05:37:33.865Z,4.43
2019-04-10T05:38:10.451Z,4.50
2019-04-10T05:38:48.137Z,4.67
2019-04-10T05:39:24.838Z,4.17
2019-04-10T05:40:01.599Z,4.70
2019-04-10T05:40:38.188Z,5.57
2019-04-10T05:41:15.461Z,4.40
2019-04-10T05:41:52.262Z,4.93
2019-04-10T05:42:29.030Z,4.77
2019-04-10T05:43:05.956Z,4.80
2019-04-10T05:43:42.646Z,4.30
2019-04-10T05:44:20.106Z,4.00
2019-04-10T05:44:56.805Z,4.83
2019-04-10T05:45:33.892Z,4.57
2019-04-10T05:46:10.577Z,4.10
2019-04-10T05:46:47.570Z,4.70
2019-04-10T05:47:24.262Z,3.83
2019-04-10T05:48:01.258Z,4.43
2019-04-10T05:48:37.788Z,4.80
2019-04-10T05:49:14.954Z,4.67
2019-04-10T05:49:51.482Z,4.50
2019-04-10T05:50:27.930Z,5.33
2019-04-10T05:51:07.316Z,4.67
2019-04-10T05:51:43.600Z,5.77
2019-04-10T05:52:20.351Z,5.00
2019-04-10T05:52:56.671Z,5.33
2019-04-10T05:53:32.816Z,4.87
2019-04-10T05:54:09.114Z,4.80
2019-04-10T05:54:45.443Z,5.93
2019-04-10T05:55:22.612Z,5.07
2019-04-10T05:55:58.988Z,5.33
2019-04-10T05:56:36.357Z,4.63
2019-04-10T05:57:12.667Z,5.73
2019-04-10T05:57:49.080Z,5.07
2019-04-10T05:58:25.824Z,5.17
2019-04-10T05:59:03.027Z,5.90
2019-04-10T05:59:40.253Z,6.13
2019-04-10T06:00:17.340Z,5.77
2019-04-10T06:00:53.581Z,5.10
2019-04-10T06:01:35.496Z,5.33
2019-04-10T06:02:08.106Z,5.30
2019-04-10T06:02:44.907Z,6.20
2019-04-10T06:03:21.433Z,5.47
2019-04-10T06:03:57.904Z,5.90
2019-04-10T06:04:34.379Z,5.30
2019-04-10T06:05:10.896Z,5.73
2019-04-10T06:05:47.325Z,5.90
2019-04-10T06:06:24.250Z,6.23
2019-04-10T06:07:01.049Z,5.80
2019-04-10T06:07:37.644Z,5.33
2019-04-10T06:08:14.059Z,6.13
2019-04-10T06:08:51.140Z,5.70
2019-04-10T06:09:27.353Z,5.50
2019-04-10T06:10:06.985Z,7.30
2019-04-10T06:10:41.653Z,6.20
2019-04-10T06:11:17.691Z,7.17
2019-04-10T06:11:53.935Z,6.33
2019-04-10T06:12:30.601Z,7.37
2019-04-10T06:13:07.040Z,8.03
2019-04-10T06:13:43.188Z,6.40
2019-04-10T06:14:19.265Z,6.87
2019-04-10T06:14:56.628Z,6.33
2019-04-10T06:15:33.037Z,7.10
2019-04-10T06:16:09.747Z,7.17
2019-04-10T06:16:46.335Z,6.80
2019-04-10T06:17:22.766Z,6.40
2019-04-10T06:17:59.065Z,7.77
2019-04-10T06:18:35.630Z,6.40
2019-04-10T06:19:12.531Z,6.40
2019-04-10T06:19:49.396Z,7.00
2019-04-10T06:20:26.612Z,7.30
2019-04-10T06:21:03.140Z,6.33
2019-04-10T06:21:39.860Z,7.20
2019-04-10T06:22:16.828Z,6.53
2019-04-10T06:22:54.573Z,7.00
2019-04-10T06:23:31.724Z,6.83
2019-04-10T06:24:08.523Z,6.47
2019-04-10T06:24:45.296Z,7.10
2019-04-10T06:25:24.668Z,6.97
2019-04-10T06:26:00.555Z,6.43
2019-04-10T06:26:37.542Z,5.93
2019-04-10T06:27:14.273Z,5.17
2019-04-10T06:27:50.726Z,5.07
2019-04-10T06:28:27.924Z,4.80
2019-04-10T06:29:05.094Z,5.13
2019-04-10T06:29:41.379Z,4.90
2019-04-10T06:30:17.736Z,5.07
2019-04-10T06:30:54.515Z,4.83
2019-04-10T06:31:30.966Z,4.77
2019-04-10T06:32:07.444Z,5.13
2019-04-10T06:32:53.856Z,4.77
2019-04-10T06:33:36.684Z,4.70
2019-04-10T06:34:15.986Z,5.50
2019-04-10T06:34:51.637Z,4.57
2019-04-10T06:35:28.393Z,5.60
2019-04-10T06:36:05.037Z,4.90
2019-04-10T06:36:41.748Z,5.60
2019-04-10T06:37:18.431Z,6.00
2019-04-10T06:37:55.038Z,4.97
2019-04-10T06:38:32.089Z,4.67
2019-04-10T06:39:09.505Z,5.53
2019-04-10T06:39:46.506Z,5.30
2019-04-10T06:40:25.906Z,5.13
2019-04-10T06:41:02.154Z,5.00
2019-04-10T06:41:39.095Z,5.80
2019-04-10T06:42:16.845Z,5.40
2019-04-10T06:42:54.944Z,4.77
2019-04-10T06:43:32.833Z,5.10
2019-04-10T06:44:09.875Z,6.20
2019-04-10T06:44:46.506Z,5.33
2019-04-10T06:45:24.017Z,5.60
2019-04-10T06:46:00.693Z,5.27
2019-04-10T06:46:38.884Z,4.77
2019-04-10T06:47:15.519Z,5.70
2019-04-10T06:47:52.969Z,5.37
2019-04-10T06:48:32.115Z,5.37
2019-04-10T06:49:09.319Z,5.37
2019-04-10T06:49:46.366Z,4.67
2019-04-10T06:50:23.171Z,6.23
2019-04-10T06:50:59.888Z,5.63
2019-04-10T06:51:37.512Z,5.33
2019-04-10T06:52:14.488Z,5.95
2019-04-10T06:52:51.349Z,5.10
2019-04-10T06:53:28.910Z,5.57
2019-04-10T06:54:10.777Z,5.00
2019-04-10T06:54:53.980Z,4.83
2019-04-10T06:55:30.785Z,6.20
2019-04-10T06:56:07.369Z,6.00
2019-04-10T06:56:45.354Z,5.93
2019-04-10T06:57:22.949Z,6.10
2019-04-10T06:58:00.769Z,5.80
2019-04-10T06:58:38.153Z,6.57
2019-04-10T06:59:14.792Z,6.00
2019-04-10T06:59:52.336Z,5.20
2019-04-10T07:00:30.556Z,6.70
2019-04-10T07:01:08.380Z,5.97
2019-04-10T07:01:51.223Z,5.93
2019-04-10T07:02:27.924Z,6.97
2019-04-10T07:03:01.661Z,5.80
2019-04-10T07:03:51.847Z,6.30
2019-04-10T07:04:18.134Z,6.03
2019-04-10T07:04:56.578Z,4.93
2019-04-10T07:05:40.875Z,5.73
2019-04-10T07:06:20.124Z,5.27
2019-04-10T07:07:00.072Z,6.10
2019-04-10T07:07:45.154Z,4.87
2019-04-10T07:08:16.254Z,5.37
2019-04-10T07:08:52.736Z,6.03
2019-04-10T07:09:27.075Z,5.90
2019-04-10T07:10:04.036Z,6.00
2019-04-10T07:10:53.123Z,5.83
2019-04-10T07:11:23.423Z,5.60
2019-04-10T07:12:01.150Z,5.67
2019-04-10T07:12:37.494Z,6.13
2019-04-10T07:13:17.601Z,5.77
2019-04-10T07:13:55.290Z,5.90
2019-04-10T07:14:35.154Z,5.50
2019-04-10T07:15:12.465Z,5.80
2019-04-10T07:15:49.801Z,5.77
2019-04-10T07:16:29.683Z,5.60
2019-04-10T07:17:07.009Z,6.00
2019-04-10T07:17:43.255Z,5.97
2019-04-10T07:18:20.644Z,5.60
2019-04-10T07:18:59.827Z,5.40
2019-04-10T07:19:36.458Z,4.87
2019-04-10T07:20:15.507Z,4.70
2019-04-10T07:20:50.978Z,5.20
2019-04-10T07:21:27.999Z,4.60
2019-04-10T07:22:11.915Z,4.70
2019-04-10T07:22:46.497Z,4.70
2019-04-10T07:23:25.866Z,4.60
2019-04-10T07:24:04.573Z,5.40
2019-04-10T07:24:41.389Z,5.10
2019-04-10T07:25:15.813Z,4.80
2019-04-10T07:25:52.283Z,5.50
2019-04-10T07:26:37.799Z,5.20
2019-04-10T07:27:07.836Z,6.10
2019-04-10T07:27:44.460Z,6.13
2019-04-10T07:28:21.524Z,6.80
2019-04-10T07:28:58.910Z,5.17
2019-04-10T07:29:36.337Z,6.00
2019-04-10T07:30:13.976Z,5.67
2019-04-10T07:30:50.416Z,6.50
2019-04-10T07:31:27.620Z,5.93
2019-04-10T07:32:07.802Z,5.60
2019-04-10T07:32:45.750Z,5.27
2019-04-10T07:33:21.079Z,5.53
2019-04-10T07:33:57.424Z,6.07
2019-04-10T07:34:34.124Z,5.33
2019-04-10T07:35:11.874Z,5.77
2019-04-10T07:35:48.217Z,6.67
2019-04-10T07:36:24.550Z,6.03
2019-04-10T07:37:00.948Z,5.80
2019-04-10T07:37:37.241Z,6.90
2019-04-10T07:38:13.983Z,5.90
2019-04-10T07:38:53.946Z,6.90
2019-04-10T07:39:31.784Z,5.93
2019-04-10T07:40:08.004Z,6.33
2019-04-10T07:40:44.986Z,6.07
2019-04-10T07:41:24.323Z,5.63
2019-04-10T07:42:00.029Z,5.70
2019-04-10T07:42:39.644Z,6.57
2019-04-10T07:43:15.288Z,6.47
2019-04-10T07:43:55.062Z,5.70
2019-04-10T07:44:30.145Z,5.40
2019-04-10T07:45:06.851Z,6.43
2019-04-10T07:45:43.278Z,4.77
2019-04-10T07:46:19.888Z,4.70
2019-04-10T07:46:58.301Z,4.83
2019-04-10T07:47:35.642Z,6.20
2019-04-10T07:48:12.882Z,4.90
2019-04-10T07:48:50.250Z,6.67
2019-04-10T07:49:30.773Z,5.40
2019-04-10T07:50:08.150Z,6.40
2019-04-10T07:50:45.339Z,6.03
2019-04-10T07:51:21.849Z,5.70
2019-04-10T07:51:58.623Z,5.33
2019-04-10T07:52:35.363Z,4.80
2019-04-10T07:53:12.767Z,5.37
2019-04-10T07:53:49.596Z,4.30
2019-04-10T07:54:26.751Z,4.63
2019-04-10T07:55:04.487Z,5.10
2019-04-10T07:55:42.120Z,4.83
2019-04-10T07:56:20.883Z,5.23
2019-04-10T07:56:57.923Z,4.23
2019-04-10T07:57:34.623Z,4.93
2019-04-10T07:58:11.241Z,5.20
2019-04-10T07:58:48.282Z,6.30
2019-04-10T07:59:25.064Z,4.87
2019-04-10T08:00:01.638Z,4.70
2019-04-10T08:00:38.269Z,4.97
2019-04-10T08:01:16.100Z,4.30
2019-04-10T08:01:52.804Z,5.00
2019-04-10T08:02:29.682Z,4.40
2019-04-10T08:03:06.413Z,5.10
2019-04-10T08:03:43.851Z,4.60
2019-04-10T08:04:22.637Z,4.77
2019-04-10T08:05:00.120Z,4.53
2019-04-10T08:05:37.510Z,4.60
2019-04-10T08:06:15.338Z,4.00
2019-04-10T08:06:52.300Z,4.70
2019-04-10T08:07:31.753Z,4.80
2019-04-10T08:08:08.556Z,5.07
2019-04-10T08:08:45.534Z,5.50
2019-04-10T08:09:22.163Z,4.67
2019-04-10T08:09:59.287Z,4.57
2019-04-10T08:10:36.886Z,4.30
2019-04-10T08:11:13.791Z,4.70
2019-04-10T08:11:51.013Z,4.70
2019-04-10T08:12:38.507Z,5.13
2019-04-10T08:13:06.519Z,4.67
2019-04-10T08:13:43.272Z,5.20
2019-04-10T08:14:20.007Z,4.30